Aviation Digital Data Service (ADDS)

Output produced by TAFs form (0716 UTC 18 April 2015)
found at http://aviationweather.gov/adds/tafs/
 
KGJT 180710Z 1807/1906 06004KT 5SM BR BKN009 BKN012 
     TEMPO 1807/1810 SCT006 OVC020 
     FM181000 00000KT 5SM BR OVC004 
     FM181600 03005KT P6SM FEW035 SCT070 
     FM190100 08005KT P6SM -SHRA OVC015 
     FM190300 06005KT P6SM VCFG BKN050